createdAt,value
2022-11-14T00:01:33.029Z,12.47
2022-11-14T00:04:29.567Z,13.53
2022-11-14T00:07:23.172Z,14.03
2022-11-14T00:10:17.179Z,13.30
2022-11-14T00:13:11.869Z,13.20
2022-11-14T00:16:05.348Z,13.07
2022-11-14T00:18:58.665Z,13.43
2022-11-14T00:21:53.455Z,13.30
2022-11-14T00:24:46.741Z,12.60
2022-11-14T00:27:40.261Z,13.83
2022-11-14T00:30:33.576Z,12.37
2022-11-14T00:33:27.144Z,13.30
2022-11-14T00:36:20.695Z,12.60
2022-11-14T00:39:15.032Z,12.73
2022-11-14T00:42:08.709Z,11.90
2022-11-14T00:45:02.235Z,13.23
2022-11-14T00:47:55.531Z,11.90
2022-11-14T00:50:49.105Z,11.30
2022-11-14T00:53:42.340Z,11.50
2022-11-14T00:56:35.910Z,11.30
2022-11-14T00:59:29.545Z,11.37
2022-11-14T01:02:23.450Z,11.30
2022-11-14T01:05:17.192Z,10.07
2022-11-14T01:08:11.134Z,12.30
2022-11-14T01:11:16.953Z,10.63
2022-11-14T01:14:10.443Z,11.37
2022-11-14T01:17:03.935Z,11.20
2022-11-14T01:19:57.544Z,11.00
2022-11-14T01:22:51.184Z,11.40
2022-11-14T01:25:45.232Z,11.30
2022-11-14T01:28:39.983Z,11.00
2022-11-14T01:31:33.547Z,10.97
2022-11-14T01:34:27.132Z,11.93
2022-11-14T01:37:20.914Z,11.50
2022-11-14T01:40:14.212Z,10.63
2022-11-14T01:43:19.752Z,10.47
2022-11-14T01:46:26.286Z,11.43
2022-11-14T01:49:25.685Z,9.67
2022-11-14T01:52:26.185Z,10.37
2022-11-14T01:55:20.030Z,10.37
2022-11-14T01:58:14.698Z,9.70
2022-11-14T02:01:08.533Z,11.27
2022-11-14T02:04:06.657Z,10.57
2022-11-14T02:07:04.743Z,10.67
2022-11-14T02:10:06.065Z,9.53
2022-11-14T02:12:59.584Z,11.07
2022-11-14T02:15:53.054Z,11.63
2022-11-14T02:18:46.503Z,11.87
2022-11-14T02:21:40.230Z,12.60
2022-11-14T02:24:33.521Z,13.20
2022-11-14T02:27:27.152Z,13.40
2022-11-14T02:30:23.364Z,12.90
2022-11-14T02:33:17.147Z,13.40
2022-11-14T02:36:10.509Z,12.30
2022-11-14T02:39:03.780Z,13.37
2022-11-14T02:41:57.205Z,14.10
2022-11-14T02:44:50.994Z,13.23
2022-11-14T02:47:44.260Z,13.70
2022-11-14T02:50:38.149Z,12.80
2022-11-14T02:53:31.320Z,11.90
2022-11-14T02:56:25.097Z,12.40
2022-11-14T02:59:18.605Z,12.67
2022-11-14T03:02:12.249Z,11.70
2022-11-14T03:05:05.887Z,11.90
2022-11-14T03:07:59.691Z,11.20
2022-11-14T03:10:53.388Z,11.57
2022-11-14T03:13:46.864Z,12.27
2022-11-14T03:16:40.491Z,12.90
2022-11-14T03:19:33.855Z,10.97
2022-11-14T03:22:28.289Z,12.17
2022-11-14T03:25:21.953Z,11.57
2022-11-14T03:28:15.620Z,11.80
2022-11-14T03:31:13.063Z,10.83
2022-11-14T03:34:06.566Z,11.53
2022-11-14T03:37:00.511Z,10.80
2022-11-14T03:39:53.970Z,10.13
2022-11-14T03:42:47.401Z,10.90
2022-11-14T03:45:40.750Z,9.93
2022-11-14T03:48:34.459Z,10.80
2022-11-14T03:51:27.881Z,11.13
2022-11-14T03:54:21.608Z,9.87
2022-11-14T03:57:14.908Z,10.37
2022-11-14T04:00:09.576Z,9.20
2022-11-14T04:03:03.100Z,9.70
2022-11-14T04:05:56.427Z,10.73
2022-11-14T04:08:51.894Z,11.73
2022-11-14T04:11:45.471Z,13.73
2022-11-14T04:14:38.984Z,13.30
2022-11-14T04:17:38.635Z,13.20
2022-11-14T04:20:33.200Z,12.07
2022-11-14T04:23:26.688Z,13.80
2022-11-14T04:26:20.267Z,15.53
2022-11-14T04:29:13.617Z,13.80
2022-11-14T04:32:07.297Z,12.90
2022-11-14T04:35:00.673Z,13.90
2022-11-14T04:37:54.060Z,15.70
2022-11-14T04:40:51.617Z,14.73
2022-11-14T04:43:50.543Z,15.20
2022-11-14T04:46:44.352Z,13.03
2022-11-14T04:49:37.917Z,14.13
2022-11-14T04:52:31.431Z,13.70
2022-11-14T04:55:24.770Z,15.33
2022-11-14T04:58:18.520Z,14.83
2022-11-14T05:01:13.745Z,13.30
2022-11-14T05:04:07.634Z,13.17
2022-11-14T05:07:01.431Z,12.90
2022-11-14T05:09:55.065Z,12.93
2022-11-14T05:12:48.783Z,13.30
2022-11-14T05:15:42.114Z,14.00
2022-11-14T05:18:35.927Z,12.87
2022-11-14T05:21:29.490Z,13.50
2022-11-14T05:24:23.186Z,12.87
2022-11-14T05:27:16.414Z,12.87
2022-11-14T05:30:11.284Z,13.20
2022-11-14T05:33:04.801Z,12.90
2022-11-14T05:36:08.081Z,12.73
2022-11-14T05:39:01.787Z,11.23
2022-11-14T05:41:55.181Z,12.23
2022-11-14T05:44:48.725Z,11.90
2022-11-14T05:47:42.025Z,12.70
2022-11-14T05:50:35.392Z,11.50
2022-11-14T05:53:30.956Z,11.37
2022-11-14T05:56:24.706Z,11.90
2022-11-14T05:59:18.350Z,11.80
2022-11-14T06:02:11.937Z,11.93
2022-11-14T06:05:06.398Z,11.77
2022-11-14T06:07:59.694Z,12.47
2022-11-14T06:10:53.323Z,12.67
2022-11-14T06:13:48.676Z,12.70
2022-11-14T06:16:42.309Z,12.10
2022-11-14T06:19:35.934Z,12.37
2022-11-14T06:22:29.561Z,11.30
2022-11-14T06:25:23.392Z,10.00
2022-11-14T06:28:16.719Z,11.20
2022-11-14T06:31:10.176Z,10.73
2022-11-14T06:34:06.012Z,12.20
2022-11-14T06:36:59.415Z,11.17
2022-11-14T06:39:52.721Z,11.90
2022-11-14T06:42:46.190Z,11.77
2022-11-14T06:45:39.937Z,10.37
2022-11-14T06:48:34.133Z,10.60
2022-11-14T06:51:27.708Z,10.60
2022-11-14T06:54:21.210Z,9.23
2022-11-14T06:57:15.761Z,8.83
2022-11-14T07:00:09.794Z,8.90
2022-11-14T07:03:03.164Z,8.90
2022-11-14T07:06:01.500Z,8.93
2022-11-14T07:08:57.931Z,9.60
2022-11-14T07:11:52.385Z,11.07
2022-11-14T07:14:46.853Z,10.40
2022-11-14T07:17:40.301Z,9.63
2022-11-14T07:20:33.862Z,10.37
2022-11-14T07:23:28.458Z,10.77
2022-11-14T07:26:22.173Z,9.17
2022-11-14T07:29:15.712Z,9.90
2022-11-14T07:32:09.307Z,11.03
2022-11-14T07:35:02.862Z,10.33
2022-11-14T07:38:02.888Z,11.53
2022-11-14T07:41:01.924Z,10.50
2022-11-14T07:43:55.676Z,10.77
2022-11-14T07:46:50.131Z,9.73
2022-11-14T07:49:43.749Z,9.90
2022-11-14T07:52:37.367Z,11.30
2022-11-14T07:55:31.187Z,11.83
2022-11-14T07:58:24.766Z,10.90
2022-11-14T08:01:17.960Z,10.20
2022-11-14T08:04:11.581Z,10.30
2022-11-14T08:07:05.005Z,11.00
2022-11-14T08:09:58.848Z,9.17
2022-11-14T08:13:25.308Z,10.03
2022-11-14T08:16:14.441Z,12.33
2022-11-14T08:19:08.020Z,11.20
2022-11-14T08:22:01.633Z,10.70
2022-11-14T08:24:55.081Z,10.87
2022-11-14T08:27:48.348Z,11.23
2022-11-14T08:30:42.080Z,10.87
2022-11-14T08:33:35.149Z,9.87
2022-11-14T08:36:28.563Z,10.17
2022-11-14T08:39:22.209Z,9.53
2022-11-14T08:42:16.006Z,7.80
2022-11-14T08:45:09.795Z,7.27
2022-11-14T08:48:03.243Z,5.60
2022-11-14T08:50:56.749Z,4.07
2022-11-14T08:53:52.275Z,3.70
2022-11-14T08:56:45.701Z,3.40
2022-11-14T08:59:38.983Z,2.60
2022-11-14T09:02:32.649Z,2.87
2022-11-14T09:05:26.588Z,2.10
2022-11-14T09:08:20.337Z,1.80
2022-11-14T09:11:18.083Z,3.00
2022-11-14T09:14:12.969Z,1.90
2022-11-14T09:17:06.611Z,2.10
2022-11-14T09:20:00.476Z,1.97
2022-11-14T09:22:53.938Z,1.40
2022-11-14T09:25:47.499Z,2.10
2022-11-14T09:28:40.692Z,1.83
2022-11-14T09:31:33.988Z,4.60
2022-11-14T09:34:27.417Z,6.40
2022-11-14T09:37:20.889Z,7.47
2022-11-14T09:40:14.569Z,7.33
2022-11-14T09:44:01.141Z,6.33
2022-11-14T09:47:07.157Z,6.03
2022-11-14T09:50:11.898Z,6.13
2022-11-14T09:53:15.043Z,6.80
2022-11-14T09:56:20.474Z,6.57
2022-11-14T09:59:14.844Z,6.90
2022-11-14T10:02:31.501Z,6.30
2022-11-14T10:05:53.802Z,6.33
2022-11-14T10:09:12.140Z,6.53
2022-11-14T10:12:29.473Z,5.80
2022-11-14T10:15:45.540Z,5.93
2022-11-14T10:18:50.198Z,5.80
2022-11-14T10:21:57.213Z,6.67
2022-11-14T10:25:30.156Z,6.70
2022-11-14T10:29:24.586Z,5.77
2022-11-14T10:32:55.146Z,6.10
2022-11-14T10:36:00.021Z,6.30
2022-11-14T10:39:14.209Z,5.97
2022-11-14T10:42:16.136Z,5.90
2022-11-14T10:45:33.001Z,5.60
2022-11-14T10:48:40.961Z,4.50
2022-11-14T10:51:47.815Z,4.87
2022-11-14T10:55:00.253Z,5.60
2022-11-14T10:57:53.741Z,5.20
2022-11-14T11:00:47.707Z,5.30
2022-11-14T11:03:43.844Z,4.97
2022-11-14T11:06:37.405Z,5.40
2022-11-14T11:09:49.549Z,5.60
2022-11-14T11:12:54.371Z,4.80
2022-11-14T11:15:58.236Z,4.33
2022-11-14T11:18:51.672Z,5.03
2022-11-14T11:21:52.180Z,4.43
2022-11-14T11:24:45.646Z,4.77
2022-11-14T11:27:39.385Z,4.10
2022-11-14T11:30:32.858Z,3.20
2022-11-14T11:33:29.891Z,3.43
2022-11-14T11:36:25.618Z,3.47
2022-11-14T11:39:28.430Z,3.20
2022-11-14T11:43:31.934Z,3.07
2022-11-14T11:45:55.980Z,3.00
2022-11-14T11:48:58.014Z,2.70
2022-11-14T11:51:56.056Z,2.93
2022-11-14T11:55:16.484Z,3.60
2022-11-14T11:58:30.209Z,2.70
2022-11-14T12:01:23.516Z,2.43
2022-11-14T12:04:17.129Z,2.00
2022-11-14T12:07:19.937Z,2.33
2022-11-14T12:10:23.125Z,1.80
2022-11-14T12:13:54.708Z,1.40
2022-11-14T12:17:37.361Z,1.57
2022-11-14T12:21:04.841Z,1.50
2022-11-14T12:24:55.519Z,1.27
2022-11-14T12:28:30.722Z,1.20
2022-11-14T12:31:26.140Z,1.30
2022-11-14T12:34:29.202Z,1.33
2022-11-14T12:37:34.801Z,1.10
2022-11-14T12:40:34.630Z,1.17
2022-11-14T12:43:39.076Z,1.30
2022-11-14T12:47:04.793Z,1.20
2022-11-14T12:50:01.558Z,1.20
2022-11-14T12:52:55.825Z,1.10
2022-11-14T12:55:49.139Z,1.10
2022-11-14T12:58:58.435Z,1.20
2022-11-14T13:01:52.853Z,1.40
2022-11-14T13:05:14.805Z,1.50
2022-11-14T13:08:47.748Z,1.20
2022-11-14T13:12:04.929Z,1.10
2022-11-14T13:15:49.158Z,1.30
2022-11-14T13:19:21.119Z,1.10
2022-11-14T13:22:14.813Z,1.40
2022-11-14T13:25:11.368Z,1.47
2022-11-14T13:28:39.116Z,1.40
2022-11-14T13:31:42.733Z,1.87
2022-11-14T13:35:37.352Z,1.90
2022-11-14T13:39:05.392Z,1.40
2022-11-14T13:42:38.687Z,1.53
2022-11-14T13:45:51.757Z,1.60
2022-11-14T13:49:16.861Z,1.30
2022-11-14T13:52:13.389Z,2.00
2022-11-14T13:55:07.496Z,1.40
2022-11-14T13:58:32.368Z,1.50
2022-11-14T14:01:31.327Z,1.10
2022-11-14T14:04:37.291Z,1.30
2022-11-14T14:08:14.311Z,1.60
2022-11-14T14:11:29.460Z,1.60
2022-11-14T14:15:08.005Z,1.30
2022-11-14T14:18:28.609Z,1.30
2022-11-14T14:22:09.323Z,1.40
2022-11-14T14:25:28.798Z,1.20
2022-11-14T14:29:09.401Z,1.20
2022-11-14T14:32:21.450Z,1.23
2022-11-14T14:35:35.582Z,1.30
2022-11-14T14:38:33.330Z,1.30
2022-11-14T14:41:32.560Z,1.30
2022-11-14T14:44:33.745Z,1.50
2022-11-14T14:47:40.508Z,1.30
2022-11-14T14:50:52.648Z,1.60
2022-11-14T14:53:53.910Z,1.50
2022-11-14T14:56:59.908Z,2.07
2022-11-14T15:00:08.761Z,1.70
2022-11-14T15:03:03.730Z,1.73
2022-11-14T15:06:03.676Z,1.77
2022-11-14T15:09:00.680Z,2.00
2022-11-14T15:11:58.992Z,1.60
2022-11-14T15:14:54.803Z,1.67
2022-11-14T15:17:50.219Z,1.30
2022-11-14T15:20:43.927Z,1.47
2022-11-14T15:23:38.976Z,1.20
2022-11-14T15:26:34.844Z,1.40
2022-11-14T15:29:30.031Z,1.53
2022-11-14T15:32:25.427Z,1.80
2022-11-14T15:35:23.926Z,1.60
2022-11-14T15:38:43.228Z,1.60
2022-11-14T15:41:36.666Z,1.53
2022-11-14T15:44:34.581Z,1.70
2022-11-14T15:47:34.817Z,1.80
2022-11-14T15:50:31.341Z,1.40
2022-11-14T15:53:28.225Z,1.20
2022-11-14T15:56:21.895Z,1.50
2022-11-14T15:59:15.597Z,1.60
2022-11-14T16:02:21.058Z,1.33
2022-11-14T16:05:16.906Z,1.60
2022-11-14T16:08:13.485Z,1.70
2022-11-14T16:11:06.853Z,1.80
2022-11-14T16:14:00.358Z,1.60
2022-11-14T16:16:53.839Z,2.20
2022-11-14T16:19:47.237Z,1.90
2022-11-14T16:22:40.909Z,2.00
2022-11-14T16:25:35.235Z,1.83
2022-11-14T16:28:28.980Z,1.80
2022-11-14T16:31:22.722Z,2.07
2022-11-14T16:34:21.412Z,1.90
2022-11-14T16:37:15.148Z,2.30
2022-11-14T16:40:19.447Z,2.10
2022-11-14T16:43:14.751Z,2.67
2022-11-14T16:46:09.634Z,2.10
2022-11-14T16:49:04.287Z,2.30
2022-11-14T16:51:58.487Z,3.70
2022-11-14T16:54:51.884Z,2.63
2022-11-14T16:57:45.495Z,2.10
2022-11-14T17:00:43.704Z,2.03
2022-11-14T17:03:37.341Z,1.53
2022-11-14T17:06:31.053Z,1.83
2022-11-14T17:09:24.305Z,1.90
2022-11-14T17:12:17.738Z,1.80
2022-11-14T17:15:11.318Z,1.87
2022-11-14T17:18:06.110Z,2.23
2022-11-14T17:20:59.740Z,2.30
2022-11-14T17:23:57.964Z,2.50
2022-11-14T17:26:51.541Z,2.33
2022-11-14T17:29:46.602Z,1.80
2022-11-14T17:32:39.892Z,1.63
2022-11-14T17:35:36.160Z,2.53
2022-11-14T17:38:33.466Z,2.53
2022-11-14T17:41:27.013Z,2.70
2022-11-14T17:44:20.301Z,3.87
2022-11-14T17:47:13.597Z,2.80
2022-11-14T17:50:07.574Z,2.93
2022-11-14T17:53:00.837Z,3.50
2022-11-14T17:55:57.511Z,3.30
2022-11-14T17:58:53.415Z,4.07
2022-11-14T18:01:47.104Z,3.67
2022-11-14T18:04:40.326Z,3.60
2022-11-14T18:07:34.008Z,3.57
2022-11-14T18:10:28.065Z,3.73
2022-11-14T18:13:21.548Z,3.00
2022-11-14T18:16:20.082Z,3.40
2022-11-14T18:19:13.806Z,3.17
2022-11-14T18:22:07.578Z,3.17
2022-11-14T18:25:07.696Z,3.50
2022-11-14T18:28:01.536Z,3.40
2022-11-14T18:30:56.678Z,4.80
2022-11-14T18:33:50.424Z,3.90
2022-11-14T18:36:44.131Z,4.40
2022-11-14T18:39:37.494Z,3.70
2022-11-14T18:42:30.840Z,3.10
2022-11-14T18:45:24.488Z,3.07
2022-11-14T18:48:18.183Z,3.20
2022-11-14T18:51:15.613Z,4.17
2022-11-14T18:54:15.825Z,3.00
2022-11-14T18:57:09.489Z,3.27
2022-11-14T19:00:04.356Z,2.97
2022-11-14T19:03:00.100Z,3.20
2022-11-14T19:06:03.006Z,3.17
2022-11-14T19:08:58.587Z,2.63
2022-11-14T19:12:11.108Z,2.80
2022-11-14T19:15:05.176Z,2.97
2022-11-14T19:17:58.633Z,3.50
2022-11-14T19:21:03.512Z,3.73
2022-11-14T19:23:57.351Z,3.23
2022-11-14T19:26:51.010Z,4.30
2022-11-14T19:29:44.836Z,4.30
2022-11-14T19:32:38.243Z,4.60
2022-11-14T19:35:31.554Z,4.50
2022-11-14T19:38:25.195Z,5.27
2022-11-14T19:41:21.800Z,5.13
2022-11-14T19:44:15.199Z,5.70
2022-11-14T19:47:08.802Z,4.90
2022-11-14T19:50:02.117Z,4.93
2022-11-14T19:52:55.926Z,4.80
2022-11-14T19:55:49.484Z,5.70
2022-11-14T19:58:45.998Z,7.30
2022-11-14T20:01:41.923Z,7.00
2022-11-14T20:04:37.900Z,6.50
2022-11-14T20:07:33.055Z,5.40
2022-11-14T20:10:26.461Z,6.13
2022-11-14T20:13:19.645Z,5.70
2022-11-14T20:16:14.416Z,6.53
2022-11-14T20:19:08.231Z,7.10
2022-11-14T20:22:01.628Z,5.70
2022-11-14T20:24:54.934Z,6.73
2022-11-14T20:27:49.124Z,6.40
2022-11-14T20:30:42.401Z,6.30
2022-11-14T20:33:42.662Z,5.30
2022-11-14T20:37:08.828Z,6.03
2022-11-14T20:39:49.813Z,6.30
2022-11-14T20:42:47.142Z,6.73
2022-11-14T20:45:40.617Z,6.20
2022-11-14T20:48:35.004Z,5.83
2022-11-14T20:51:28.304Z,5.70
2022-11-14T20:54:21.642Z,5.87
2022-11-14T20:57:14.932Z,4.90
2022-11-14T21:00:09.090Z,5.53
2022-11-14T21:03:02.753Z,5.60
2022-11-14T21:05:57.659Z,6.20
2022-11-14T21:08:50.925Z,5.07
2022-11-14T21:11:44.158Z,6.27
2022-11-14T21:14:37.797Z,5.67
2022-11-14T21:17:31.661Z,4.83
2022-11-14T21:20:24.786Z,5.67
2022-11-14T21:23:17.986Z,5.70
2022-11-14T21:26:16.747Z,5.10
2022-11-14T21:29:14.458Z,4.63
2022-11-14T21:32:07.977Z,5.67
2022-11-14T21:35:04.481Z,5.10
2022-11-14T21:38:02.159Z,4.73
2022-11-14T21:40:56.221Z,5.20
2022-11-14T21:43:55.074Z,4.63
2022-11-14T21:46:49.672Z,5.97
2022-11-14T21:49:42.864Z,5.50
2022-11-14T21:52:36.861Z,5.40
2022-11-14T21:55:33.788Z,4.57
2022-11-14T21:58:30.720Z,4.70
2022-11-14T22:01:42.720Z,4.83
2022-11-14T22:04:37.160Z,5.23
2022-11-14T22:07:30.669Z,4.87
2022-11-14T22:10:24.295Z,4.20
2022-11-14T22:13:17.853Z,4.87
2022-11-14T22:16:11.941Z,4.53
2022-11-14T22:19:06.008Z,4.77
2022-11-14T22:21:59.575Z,4.37
2022-11-14T22:24:53.151Z,5.53
2022-11-14T22:27:46.821Z,5.47
2022-11-14T22:30:40.630Z,5.93
2022-11-14T22:33:36.401Z,6.33
2022-11-14T22:36:30.091Z,6.70
2022-11-14T22:39:23.270Z,6.33
2022-11-14T22:42:16.761Z,6.53
2022-11-14T22:45:10.638Z,7.23
2022-11-14T22:48:03.956Z,6.17
2022-11-14T22:51:10.526Z,4.87
2022-11-14T22:54:04.324Z,5.33
2022-11-14T22:56:57.661Z,5.00
2022-11-14T22:59:51.035Z,4.87
2022-11-14T23:02:44.610Z,3.97
2022-11-14T23:05:38.634Z,4.20
2022-11-14T23:08:32.173Z,4.13
2022-11-14T23:11:29.062Z,3.63
2022-11-14T23:14:22.504Z,3.57
2022-11-14T23:17:16.196Z,3.47
2022-11-14T23:20:16.103Z,3.30
2022-11-14T23:23:10.089Z,3.40
2022-11-14T23:26:09.029Z,3.57
2022-11-14T23:29:02.733Z,3.30
2022-11-14T23:31:56.420Z,3.33
2022-11-14T23:34:50.087Z,3.93
2022-11-14T23:37:43.250Z,3.40
2022-11-14T23:40:36.712Z,2.60
2022-11-14T23:43:30.858Z,3.27
2022-11-14T23:46:24.475Z,2.90
2022-11-14T23:49:18.165Z,2.40
2022-11-14T23:52:11.649Z,3.27
2022-11-14T23:55:05.566Z,2.40
2022-11-14T23:57:59.033Z,2.90
